Time;durP1;ratioP1;P1;durP2;ratioP2;P2;SDS_P1;SDS_P2;PMS_P1;PMS_P2;Temp;Humidity;BMP_temperature;BMP_pressure;BME280_temperature;BME280_humidity;BME280_pressure;Samples;Min_cycle;Max_cycle;Signal;HPM_P1;HPM_P2
2021/03/27 00:00:16;;;;;;;13.60;9.32;;;;;;;8.66;100.00;100551.16;10416648;28;20053;-72
2021/03/27 00:05:22;;;;;;;10.38;9.20;;;;;;;8.53;100.00;100573.53;10423317;28;20522;-72
2021/03/27 00:10:26;;;;;;;12.02;8.05;;;;;;;8.19;100.00;100567.72;10423928;28;20139;-71
2021/03/27 00:15:51;;;;;;;19.00;8.98;;;;;;;7.88;100.00;100570.53;10424389;28;20033;-71
2021/03/27 00:20:56;;;;;;;7.47;6.15;;;;;;;7.44;100.00;100554.53;10423901;28;20053;-71
2021/03/27 00:26:09;;;;;;;5.93;4.22;;;;;;;7.10;100.00;100556.50;10431403;28;20060;-72
2021/03/27 00:31:16;;;;;;;5.75;4.20;;;;;;;6.80;100.00;100538.16;10462467;28;20450;-71
2021/03/27 00:36:23;;;;;;;4.85;3.83;;;;;;;6.60;100.00;100561.47;10458195;28;20068;-71
2021/03/27 00:41:33;;;;;;;5.15;3.80;;;;;;;6.38;100.00;100586.50;10439780;28;20474;-71
2021/03/27 00:46:38;;;;;;;4.85;3.75;;;;;;;6.23;100.00;100603.47;10421883;28;20436;-71
2021/03/27 00:52:02;;;;;;;3.78;3.33;;;;;;;6.24;100.00;100630.50;10452146;28;20051;-72
2021/03/27 00:57:25;;;;;;;4.43;2.55;;;;;;;6.11;100.00;100637.78;10449619;28;20391;-71
2021/03/27 01:02:28;;;;;;;6.00;2.65;;;;;;;6.10;100.00;100633.47;10427994;28;20042;-71
2021/03/27 01:08:02;;;;;;;5.35;2.53;;;;;;;5.90;100.00;100641.81;10438028;28;20049;-71
2021/03/27 01:13:34;;;;;;;3.38;1.75;;;;;;;5.72;100.00;100650.94;10434581;28;20045;-71
2021/03/27 01:18:46;;;;;;;4.25;2.30;;;;;;;5.73;100.00;100660.50;10437388;28;20046;-72
2021/03/27 01:23:55;;;;;;;5.38;1.98;;;;;;;5.73;100.00;100659.63;10457394;28;20472;-72
2021/03/27 01:29:06;;;;;;;3.70;2.35;;;;;;;5.72;100.00;100668.34;10461550;28;20060;-72
2021/03/27 01:34:23;;;;;;;5.00;2.47;;;;;;;5.71;100.00;100679.72;10462154;28;20062;-71
2021/03/27 01:39:29;;;;;;;3.40;2.10;;;;;;;5.71;100.00;100679.72;10425549;28;20037;-71
2021/03/27 01:44:42;;;;;;;5.07;2.17;;;;;;;5.62;100.00;100674.69;10419647;28;20051;-71
2021/03/27 01:50:03;;;;;;;4.70;2.30;;;;;;;5.67;100.00;100704.22;10442350;28;20055;-71
2021/03/27 01:55:29;;;;;;;3.85;2.28;;;;;;;5.59;100.00;100693.06;10489240;28;20059;-71
2021/03/27 02:00:46;;;;;;;6.27;2.33;;;;;;;5.52;100.00;100712.41;10461766;28;20036;-71
2021/03/27 02:05:53;;;;;;;4.20;2.00;;;;;;;5.51;100.00;100719.38;10460894;28;20041;-71
2021/03/27 02:11:01;;;;;;;6.78;2.60;;;;;;;5.54;100.00;100724.50;10459892;28;20056;-72
2021/03/27 02:16:17;;;;;;;8.40;3.42;;;;;;;5.46;100.00;100739.50;10462351;28;20048;-71
2021/03/27 02:21:38;;;;;;;4.88;2.80;;;;;;;5.44;100.00;100748.28;10418361;28;20057;-71
2021/03/27 02:27:02;;;;;;;8.13;2.67;;;;;;;5.45;100.00;100755.19;10417188;28;20077;-71
2021/03/27 02:32:09;;;;;;;5.65;2.67;;;;;;;5.43;100.00;100757.88;10418904;28;20045;-72
2021/03/27 02:37:30;;;;;;;9.57;4.40;;;;;;;5.46;100.00;100763.00;10418230;28;20041;-71
2021/03/27 02:42:53;;;;;;;7.25;3.50;;;;;;;5.41;100.00;100769.22;10483945;28;20373;-71
2021/03/27 02:48:39;;;;;;;5.68;3.75;;;;;;;5.46;100.00;100789.13;10500762;28;20036;-71
2021/03/27 02:54:05;;;;;;;7.47;4.40;;;;;;;5.48;100.00;100805.66;10491455;28;20044;-71
2021/03/27 02:59:25;;;;;;;9.00;4.22;;;;;;;5.48;100.00;100816.09;10500255;28;20052;-71
2021/03/27 03:04:41;;;;;;;9.18;4.85;;;;;;;5.46;100.00;100820.50;10499507;28;20059;-71
2021/03/27 03:10:08;;;;;;;8.65;3.88;;;;;;;5.38;100.00;100816.31;10500175;28;20049;-71
2021/03/27 03:15:33;;;;;;;8.10;4.78;;;;;;;5.32;100.00;100815.56;10501033;28;20052;-72
2021/03/27 03:20:46;;;;;;;10.53;4.17;;;;;;;5.32;100.00;100838.19;10477390;28;20052;-71
2021/03/27 03:25:55;;;;;;;7.25;4.13;;;;;;;5.40;100.00;100856.34;10458346;28;20450;-71
2021/03/27 03:31:15;;;;;;;9.88;4.32;;;;;;;5.53;100.00;100871.72;10457756;28;20052;-71
2021/03/27 03:36:32;;;;;;;10.30;3.92;;;;;;;5.54;100.00;100872.59;10458982;28;20040;-71
2021/03/27 03:41:50;;;;;;;10.27;4.28;;;;;;;5.54;100.00;100870.84;10466624;28;20045;-71
2021/03/27 03:47:28;;;;;;;10.93;4.78;;;;;;;5.47;100.00;100865.78;10465210;28;20041;-71
2021/03/27 03:53:03;;;;;;;9.75;3.97;;;;;;;5.38;100.00;100858.09;10467006;28;20045;-71
2021/03/27 03:58:22;;;;;;;9.75;4.75;;;;;;;5.40;100.00;100869.41;10466102;28;20052;-71
2021/03/27 04:03:37;;;;;;;8.52;3.92;;;;;;;5.33;100.00;100872.13;10465889;28;20037;-71
2021/03/27 04:09:00;;;;;;;8.27;3.97;;;;;;;5.36;100.00;100875.59;10465539;28;20048;-71
2021/03/27 04:14:08;;;;;;;11.55;3.90;;;;;;;5.37;100.00;100875.53;10465389;28;20474;-71
2021/03/27 04:19:17;;;;;;;12.23;4.15;;;;;;;5.33;100.00;100866.03;10465324;28;20455;-71
2021/03/27 04:24:29;;;;;;;9.07;3.58;;;;;;;5.24;100.00;100847.94;10465146;28;20049;-71
2021/03/27 04:29:46;;;;;;;10.25;3.22;;;;;;;5.19;100.00;100852.38;10463702;28;20049;-71
2021/03/27 04:35:10;;;;;;;7.85;2.70;;;;;;;5.14;100.00;100852.47;10464176;28;20033;-71
2021/03/27 04:40:25;;;;;;;11.60;3.08;;;;;;;5.11;100.00;100859.47;10464530;28;20056;-71
2021/03/27 04:45:39;;;;;;;6.57;2.72;;;;;;;5.09;100.00;100861.28;10463172;28;20069;-71
2021/03/27 04:51:21;;;;;;;11.45;3.97;;;;;;;5.20;100.00;100882.81;10463315;28;20051;-71
2021/03/27 04:56:51;;;;;;;7.57;3.28;;;;;;;5.18;100.00;100879.38;10463764;28;20041;-71
2021/03/27 05:02:01;;;;;;;9.07;2.97;;;;;;;5.20;100.00;100891.50;10464248;28;20041;-71
2021/03/27 05:07:27;;;;;;;11.40;3.17;;;;;;;5.34;100.00;100927.84;10463102;28;20056;-70
2021/03/27 05:12:37;;;;;;;10.45;2.88;;;;;;;5.31;100.00;100920.94;10463232;28;20043;-71
2021/03/27 05:17:45;;;;;;;6.40;2.80;;;;;;;5.18;100.00;100908.97;10462127;28;20037;-71
2021/03/27 05:22:55;;;;;;;13.32;3.40;;;;;;;5.12;100.00;100918.66;10463332;28;20051;-71
2021/03/27 05:28:06;;;;;;;9.70;3.42;;;;;;;4.89;100.00;100904.22;10462607;28;20363;-71
2021/03/27 05:33:47;;;;;;;10.15;3.33;;;;;;;4.87;100.00;100921.66;10462480;28;20037;-71
2021/03/27 05:38:55;;;;;;;10.40;3.38;;;;;;;4.92;100.00;100948.56;10431126;28;20743;-71
2021/03/27 05:44:32;;;;;;;8.85;2.78;;;;;;;4.98;100.00;100963.28;10461556;28;20033;-71
2021/03/27 05:49:42;;;;;;;12.90;3.50;;;;;;;5.16;100.00;100990.84;10461202;28;20048;-71
2021/03/27 05:54:52;;;;;;;11.07;3.47;;;;;;;5.28;100.00;101007.16;10461840;28;20041;-71
2021/03/27 06:00:16;;;;;;;10.10;3.55;;;;;;;5.42;100.00;101012.19;10460934;28;20041;-71
2021/03/27 06:05:39;;;;;;;8.75;3.35;;;;;;;5.53;100.00;101025.91;10461425;28;20040;-71
2021/03/27 06:10:58;;;;;;;13.48;3.45;;;;;;;5.71;100.00;101041.28;10459563;28;20063;-71
2021/03/27 06:16:37;;;;;;;13.55;3.50;;;;;;;6.00;100.00;101063.47;10459935;28;20390;-71
2021/03/27 06:22:01;;;;;;;12.10;3.83;;;;;;;6.06;100.00;101074.69;10461150;28;20107;-71
2021/03/27 06:27:11;;;;;;;11.82;3.75;;;;;;;5.59;100.00;101002.31;10458929;28;20053;-72
2021/03/27 06:32:49;;;;;;;11.73;3.90;;;;;;;5.36;100.00;101014.88;10459476;28;20044;-72
2021/03/27 06:38:12;;;;;;;12.95;4.50;;;;;;;5.24;100.00;101028.16;10459798;28;20059;-71
2021/03/27 06:43:27;;;;;;;10.27;4.25;;;;;;;5.04;100.00;101054.56;10459788;28;20037;-72
2021/03/27 06:48:37;;;;;;;8.63;3.10;;;;;;;4.85;100.00;101059.16;10459122;28;20040;-71
2021/03/27 06:54:21;;;;;;;6.38;2.75;;;;;;;4.52;100.00;101042.19;10459234;28;20349;-71
2021/03/27 06:59:40;;;;;;;6.25;2.47;;;;;;;4.45;100.00;101053.59;10458794;28;20044;-72
2021/03/27 07:04:51;;;;;;;6.13;1.70;;;;;;;4.34;100.00;101062.44;10459415;28;20039;-72
2021/03/27 07:10:07;;;;;;;5.35;1.70;;;;;;;4.40;100.00;101088.47;10457317;28;20178;-71
2021/03/27 07:15:30;;;;;;;4.82;1.95;;;;;;;4.33;100.00;101110.28;10458621;28;20356;-71
2021/03/27 07:20:57;;;;;;;4.35;1.90;;;;;;;4.25;100.00;101112.09;10459323;28;20041;-71
2021/03/27 07:26:16;;;;;;;3.78;1.42;;;;;;;4.52;100.00;101158.75;10459331;28;20037;-71
2021/03/27 07:31:30;;;;;;;5.55;1.80;;;;;;;4.71;100.00;101162.88;10458937;28;20481;-71
2021/03/27 07:36:56;;;;;;;4.57;1.25;;;;;;;4.76;100.00;101175.91;10458344;28;20049;-71
2021/03/27 07:42:03;;;;;;;2.78;1.35;;;;;;;5.35;100.00;101235.25;10459116;28;20064;-71
2021/03/27 07:47:27;;;;;;;5.60;1.67;;;;;;;6.65;100.00;101326.63;10457775;28;20051;-70
2021/03/27 07:52:41;;;;;;;4.50;1.60;;;;;;;7.46;100.00;101346.09;10438914;28;20034;-71
2021/03/27 07:58:04;;;;;;;5.65;1.85;;;;;;;8.19;97.37;101376.06;10417217;28;20176;-71
2021/03/27 08:03:33;;;;;;;4.75;1.92;;;;;;;7.98;90.54;101283.78;10450932;28;20052;-70
2021/03/27 08:09:00;;;;;;;5.70;2.05;;;;;;;9.57;85.72;101371.75;10457092;28;20381;-70
2021/03/27 08:14:28;;;;;;;5.43;1.80;;;;;;;8.06;84.92;101173.41;10456627;28;20064;-71
2021/03/27 08:19:44;;;;;;;6.68;2.78;;;;;;;9.49;82.97;101345.66;10416470;28;20060;-71
2021/03/27 08:24:48;;;;;;;6.32;1.95;;;;;;;9.22;82.22;101288.56;10437158;28;20044;-71
2021/03/27 08:29:58;;;;;;;5.90;2.45;;;;;;;8.72;80.16;101212.81;10451849;28;20040;-71
2021/03/27 08:35:13;;;;;;;8.55;2.50;;;;;;;8.25;80.71;101168.56;10424286;28;20443;-71
2021/03/27 08:40:17;;;;;;;11.88;2.78;;;;;;;8.28;81.47;101211.34;10449507;28;20064;-71
2021/03/27 08:45:27;;;;;;;6.88;3.42;;;;;;;9.27;79.31;101302.47;10440998;28;20048;-72
2021/03/27 08:51:09;;;;;;;7.75;3.03;;;;;;;10.98;73.72;101384.06;10431007;28;20064;-71
2021/03/27 08:57:05;;;;;;;9.48;3.63;;;;;;;9.39;73.65;101208.28;10421540;28;20134;-70
2021/03/27 09:02:22;;;;;;;11.73;3.38;;;;;;;9.07;76.89;101232.88;10423010;28;20056;-71
2021/03/27 09:07:35;;;;;;;8.02;2.83;;;;;;;10.85;72.29;101358.19;10421476;28;20049;-71
2021/03/27 09:12:57;;;;;;;10.07;3.40;;;;;;;9.91;70.88;101230.38;10422259;28;20092;-71
2021/03/27 09:18:28;;;;;;;7.35;3.03;;;;;;;11.19;66.97;101277.00;10421914;28;20056;-71
2021/03/27 09:23:54;;;;;;;10.82;3.00;;;;;;;12.58;63.51;101290.09;10421160;28;20513;-71
2021/03/27 09:29:20;;;;;;;10.13;2.97;;;;;;;10.27;67.75;101205.53;10421003;28;20053;-71
2021/03/27 09:35:08;;;;;;;10.82;3.30;;;;;;;10.51;67.35;101187.16;10420613;28;20364;-71
2021/03/27 09:40:29;;;;;;;8.35;3.10;;;;;;;10.18;67.38;101147.91;10419273;28;20049;-71
2021/03/27 09:45:42;;;;;;;8.35;2.70;;;;;;;9.00;71.35;101097.31;10419660;28;20049;-71
2021/03/27 09:51:17;;;;;;;14.38;4.05;;;;;;;8.52;75.00;101093.47;10420427;28;20482;-71
2021/03/27 09:56:39;;;;;;;7.88;3.00;;;;;;;7.99;77.49;101088.72;10411462;28;20069;-71
2021/03/27 10:02:05;;;;;;;12.60;3.63;;;;;;;7.82;80.72;101138.13;10420626;28;20494;-72
2021/03/27 10:07:30;;;;;;;9.73;4.00;;;;;;;6.66;84.45;101069.16;10419256;28;20045;-71
2021/03/27 10:12:46;;;;;;;17.95;3.80;;;;;;;6.93;87.81;101129.72;10419405;28;20034;-71
2021/03/27 10:17:56;;;;;;;10.77;3.50;;;;;;;6.95;88.28;101168.03;10429094;28;20041;-71
2021/03/27 10:22:57;;;;;;;10.07;3.72;;;;;;;7.39;87.37;101203.81;10425426;28;20041;-71
2021/03/27 10:28:16;;;;;;;10.60;4.20;;;;;;;7.31;87.69;101216.22;10419025;28;20037;-72
2021/03/27 10:33:24;;;;;;;16.70;3.95;;;;;;;7.36;89.12;101227.47;10423520;28;20756;-71
2021/03/27 10:38:32;;;;;;;10.35;3.35;;;;;;;9.92;84.39;101405.81;10459008;28;20397;-70
2021/03/27 10:43:49;;;;;;;8.90;3.40;;;;;;;12.12;71.98;101448.69;10437901;28;20041;-71
2021/03/27 10:49:27;;;;;;;7.55;2.67;;;;;;;12.14;64.88;101420.41;10423303;28;20071;-71
2021/03/27 10:54:48;;;;;;;8.63;2.88;;;;;;;12.94;60.97;101410.22;10419195;28;20081;-71
2021/03/27 11:00:08;;;;;;;7.03;2.40;;;;;;;13.16;58.77;101349.34;10433316;28;20054;-70
2021/03/27 11:05:21;;;;;;;8.93;3.25;;;;;;;14.16;57.93;101420.78;10436388;28;20041;-71
2021/03/27 11:11:13;;;;;;;8.75;3.08;;;;;;;9.78;64.54;101169.41;10458418;28;20056;-71
2021/03/27 11:16:44;;;;;;;9.63;3.35;;;;;;;9.09;68.97;101188.16;10356816;28;20054;-71
2021/03/27 11:22:00;;;;;;;7.38;2.90;;;;;;;12.51;65.24;101501.81;10423213;28;20045;-71
2021/03/27 11:27:18;;;;;;;7.60;3.00;;;;;;;12.50;59.66;101346.78;10417504;28;20448;-70
2021/03/27 11:32:42;;;;;;;6.55;3.15;;;;;;;12.35;62.05;101439.88;10421719;28;20068;-71
2021/03/27 11:38:02;;;;;;;8.85;3.65;;;;;;;13.82;57.26;101402.91;10423594;28;20059;-71
2021/03/27 11:43:18;;;;;;;8.35;3.35;;;;;;;14.94;55.61;101420.59;10458819;28;20460;-71
2021/03/27 11:48:35;;;;;;;5.40;2.60;;;;;;;14.66;52.09;101365.38;10457663;28;20052;-71
2021/03/27 11:53:40;;;;;;;6.72;2.90;;;;;;;12.01;55.41;101165.63;10458504;28;20037;-72
2021/03/27 12:00:47;;;;;;;8.38;3.38;;;;;;;13.24;50.98;101181.38;10453910;28;20108;-71
2021/03/27 12:05:22;;;;;;;7.10;2.92;;;;;;;14.72;50.09;101352.69;10424672;28;20344;-70
2021/03/27 12:10:35;;;;;;;8.10;3.58;;;;;;;15.24;51.25;101460.69;10423845;28;20052;-71
2021/03/27 12:15:40;;;;;;;6.82;2.85;;;;;;;13.62;50.82;101194.63;10459714;28;20039;-71
2021/03/27 12:20:54;;;;;;;7.13;3.08;;;;;;;12.06;55.17;101224.38;10463878;28;20049;-70
2021/03/27 12:26:04;;;;;;;9.60;3.80;;;;;;;11.58;57.73;101269.38;10458070;28;20049;-71
2021/03/27 12:31:34;;;;;;;8.02;3.08;;;;;;;12.80;56.40;101355.22;10464452;28;20480;-72
2021/03/27 12:36:50;;;;;;;6.22;2.95;;;;;;;13.37;55.35;101342.28;10463310;28;20041;-71
2021/03/27 12:42:14;;;;;;;8.55;2.97;;;;;;;12.61;53.83;101251.19;10446710;28;20053;-72
2021/03/27 12:47:19;;;;;;;9.93;2.88;;;;;;;12.81;53.52;101256.47;10452822;28;20375;-71
2021/03/27 12:52:48;;;;;;;5.18;2.72;;;;;;;12.74;54.46;101307.03;10462587;28;20390;-71
2021/03/27 12:57:57;;;;;;;7.85;3.00;;;;;;;12.83;56.00;101376.25;10460958;28;20056;-71
2021/03/27 13:03:31;;;;;;;8.93;3.78;;;;;;;12.21;53.75;101219.44;10422599;28;20451;-71
2021/03/27 13:08:43;;;;;;;9.18;2.72;;;;;;;13.08;54.18;101383.19;10437098;28;20458;-70
2021/03/27 13:14:26;;;;;;;4.40;2.03;;;;;;;12.70;49.08;101216.44;10421619;28;20034;-70
2021/03/27 13:19:38;;;;;;;7.07;2.17;;;;;;;12.00;49.81;101169.19;10437001;28;20462;-72
2021/03/27 13:25:26;;;;;;;8.10;2.50;;;;;;;11.90;50.49;101196.03;10437447;28;20478;-71
2021/03/27 13:30:33;;;;;;;5.05;2.03;;;;;;;11.97;49.65;101190.44;10455879;28;20076;-70
2021/03/27 13:35:49;;;;;;;5.60;2.33;;;;;;;12.04;51.06;101249.16;10461418;28;20072;-70
2021/03/27 13:40:52;;;;;;;7.53;2.30;;;;;;;12.08;50.03;101217.28;10442837;28;20041;-71
2021/03/27 13:46:06;;;;;;;5.65;2.00;;;;;;;11.81;48.72;101183.19;10460059;28;20380;-70
2021/03/27 13:51:23;;;;;;;7.40;2.22;;;;;;;11.64;48.76;101204.94;10461888;28;20358;-71
2021/03/27 13:56:39;;;;;;;6.63;2.38;;;;;;;11.40;51.31;101248.97;10458399;28;20041;-71
2021/03/27 14:02:07;;;;;;;7.13;2.20;;;;;;;11.29;50.60;101219.50;10461341;28;20091;-72
2021/03/27 14:29:52;;;;;;;7.35;2.70;;;;;;;10.90;53.41;101238.47;10595416;23;19923;-72
